Kissimmee Gateway Airport
KISM : rendu visible

Aérodrome :











RETROUVEZ-NOUS SUR...

 
LOGIN :

S'inscrire | Disclaimer

   EN    FR    IT 

 









Légende :    VFR   VFR Marginal   IFR   IFR Intensif   IFR Très Intensif
Visi : 
Plafond : 
>= 8 km
>= 3000ft
5 à 8 km
1000 à 3000 ft
1500m à 5 km
500 à 1000 ft
800 à 1500m
200 à 500 ft
< 800m
< 200 ft
Symboles :   Orages  Brouillard  Fortes neiges  Fortes précipitations  Vent > 20 kt






- Altitude de l'aérodrome : 82 ft


KISM - Kissimmee Gateway

DERNIER METAR :
  • 120956Z AUTO 00000KT 10SM CLR 17/17 A2997 RMK AO2 SLP149 T01720167 PNO $

METARs EXPIRÉS :
  • 120856Z AUTO 00000KT 10SM SCT060 18/18 A2999 RMK AO2 SLP155 6//// T01780178 56014 PNO $
  • 120756Z AUTO 00000KT 10SM FEW046 BKN060 19/18 A3000 RMK AO2 SLP158 T01890183 PNO $

TAF KISM
Valide du 12 à 10h jusqu'au 13 à 06h UTC


121029Z 1210/1306 00000KT P6SM FEW040 BKN070
FM121500 23007KT P6SM SCT030 BKN250
FM122200 28006KT P6SM VCSH SCT040 BKN060
FM130200 34012KT P6SM VCSH SCT035 BKN060



MET'MAP, la Météo Aéronautique d'un coup d'oeil ! - Copyright ORBIFLY Décembre 2007 - Disclaimer

ORBIFLY MET'MAP TEAM :

Programmation & Développement : Alexandra Zaïnal
Conception & Développement : Baudouin d'Aumeries
Co-Programmation & Développement : Marc-Olivier Méhu
Soutien technique & logistique : Manuel Goepfert

Contact : metmap@orbifly.com




SOURCES & CREDITS :

   NOAA       Earth
Advisory